sensor_id;sensor_type;location;lat;lon;timestamp;pressure;altitude;pressure_sealevel;temperature;humidity
23733;BME280;12047;53.450;-2.286;2024-01-15T00:03:55;100813.06;;;5.73;100.00
23733;BME280;12047;53.450;-2.286;2024-01-15T00:08:56;100822.88;;;5.96;100.00
23733;BME280;12047;53.450;-2.286;2024-01-15T00:13:58;100834.13;;;5.98;100.00
23733;BME280;12047;53.450;-2.286;2024-01-15T00:18:59;100828.97;;;6.09;100.00
23733;BME280;12047;53.450;-2.286;2024-01-15T00:23:59;100816.44;;;6.26;100.00
23733;BME280;12047;53.450;-2.286;2024-01-15T00:29:00;100812.97;;;5.62;100.00
23733;BME280;12047;53.450;-2.286;2024-01-15T00:34:01;100819.78;;;5.77;100.00
23733;BME280;12047;53.450;-2.286;2024-01-15T00:39:01;100811.81;;;5.78;100.00
23733;BME280;12047;53.450;-2.286;2024-01-15T00:44:02;100827.25;;;5.70;100.00
23733;BME280;12047;53.450;-2.286;2024-01-15T00:49:03;100820.25;;;5.96;100.00
23733;BME280;12047;53.450;-2.286;2024-01-15T00:54:03;100824.56;;;6.10;100.00
23733;BME280;12047;53.450;-2.286;2024-01-15T00:59:04;100803.59;;;5.83;100.00
23733;BME280;12047;53.450;-2.286;2024-01-15T01:04:05;100810.13;;;5.65;100.00
23733;BME280;12047;53.450;-2.286;2024-01-15T01:09:05;100806.22;;;5.83;100.00
23733;BME280;12047;53.450;-2.286;2024-01-15T01:14:06;100812.75;;;5.65;100.00
23733;BME280;12047;53.450;-2.286;2024-01-15T01:19:07;100807.50;;;5.65;100.00
23733;BME280;12047;53.450;-2.286;2024-01-15T01:24:07;100801.66;;;5.34;100.00
23733;BME280;12047;53.450;-2.286;2024-01-15T01:29:08;100808.81;;;5.45;100.00
23733;BME280;12047;53.450;-2.286;2024-01-15T01:34:08;100797.38;;;5.59;100.00
23733;BME280;12047;53.450;-2.286;2024-01-15T01:39:09;100800.94;;;5.45;100.00
23733;BME280;12047;53.450;-2.286;2024-01-15T01:44:10;100792.03;;;5.08;100.00
23733;BME280;12047;53.450;-2.286;2024-01-15T01:49:13;100786.34;;;5.01;100.00
23733;BME280;12047;53.450;-2.286;2024-01-15T01:54:16;100774.59;;;5.07;100.00
23733;BME280;12047;53.450;-2.286;2024-01-15T01:59:16;100778.25;;;4.92;100.00
23733;BME280;12047;53.450;-2.286;2024-01-15T02:04:17;100784.84;;;4.97;100.00
23733;BME280;12047;53.450;-2.286;2024-01-15T02:09:18;100775.41;;;5.34;100.00
23733;BME280;12047;53.450;-2.286;2024-01-15T02:14:19;100777.91;;;5.36;100.00
23733;BME280;12047;53.450;-2.286;2024-01-15T02:19:19;100776.44;;;5.44;100.00
23733;BME280;12047;53.450;-2.286;2024-01-15T02:24:20;100783.00;;;5.64;100.00
23733;BME280;12047;53.450;-2.286;2024-01-15T02:29:21;100787.59;;;5.48;100.00
23733;BME280;12047;53.450;-2.286;2024-01-15T02:34:21;100793.06;;;5.45;100.00
23733;BME280;12047;53.450;-2.286;2024-01-15T02:39:22;100786.53;;;5.38;100.00
23733;BME280;12047;53.450;-2.286;2024-01-15T02:44:23;100781.69;;;5.19;100.00
23733;BME280;12047;53.450;-2.286;2024-01-15T02:49:23;100786.72;;;5.22;100.00
23733;BME280;12047;53.450;-2.286;2024-01-15T02:54:24;100780.16;;;4.49;100.00
23733;BME280;12047;53.450;-2.286;2024-01-15T02:59:24;100772.50;;;4.31;100.00
23733;BME280;12047;53.450;-2.286;2024-01-15T03:04:25;100768.31;;;5.22;100.00
23733;BME280;12047;53.450;-2.286;2024-01-15T03:09:25;100751.94;;;5.31;100.00
23733;BME280;12047;53.450;-2.286;2024-01-15T03:14:26;100763.38;;;4.78;100.00
23733;BME280;12047;53.450;-2.286;2024-01-15T03:19:26;100761.06;;;5.13;100.00
23733;BME280;12047;53.450;-2.286;2024-01-15T03:24:27;100758.59;;;5.37;100.00
23733;BME280;12047;53.450;-2.286;2024-01-15T03:29:27;100747.28;;;5.09;100.00
23733;BME280;12047;53.450;-2.286;2024-01-15T03:34:28;100748.13;;;5.10;100.00
23733;BME280;12047;53.450;-2.286;2024-01-15T03:39:29;100741.34;;;4.81;100.00
23733;BME280;12047;53.450;-2.286;2024-01-15T03:44:29;100741.69;;;4.35;100.00
23733;BME280;12047;53.450;-2.286;2024-01-15T03:49:30;100737.00;;;5.06;100.00
23733;BME280;12047;53.450;-2.286;2024-01-15T03:54:30;100740.53;;;4.93;100.00
23733;BME280;12047;53.450;-2.286;2024-01-15T03:59:31;100741.53;;;4.51;100.00
23733;BME280;12047;53.450;-2.286;2024-01-15T04:04:31;100725.03;;;4.22;100.00
23733;BME280;12047;53.450;-2.286;2024-01-15T04:09:32;100740.59;;;3.96;100.00
23733;BME280;12047;53.450;-2.286;2024-01-15T04:14:32;100736.16;;;3.70;100.00
23733;BME280;12047;53.450;-2.286;2024-01-15T04:19:33;100738.88;;;4.65;100.00
23733;BME280;12047;53.450;-2.286;2024-01-15T04:24:33;100730.00;;;4.53;100.00
23733;BME280;12047;53.450;-2.286;2024-01-15T04:29:34;100733.22;;;4.17;100.00
23733;BME280;12047;53.450;-2.286;2024-01-15T04:34:34;100740.22;;;4.58;100.00
23733;BME280;12047;53.450;-2.286;2024-01-15T04:39:35;100731.19;;;4.21;100.00
23733;BME280;12047;53.450;-2.286;2024-01-15T04:44:36;100728.75;;;4.32;100.00
23733;BME280;12047;53.450;-2.286;2024-01-15T04:49:36;100736.09;;;4.54;100.00
23733;BME280;12047;53.450;-2.286;2024-01-15T04:54:38;100734.38;;;4.26;100.00
23733;BME280;12047;53.450;-2.286;2024-01-15T04:59:40;100741.53;;;4.09;100.00
23733;BME280;12047;53.450;-2.286;2024-01-15T05:04:41;100737.38;;;4.34;100.00
23733;BME280;12047;53.450;-2.286;2024-01-15T05:09:42;100731.94;;;4.23;100.00
23733;BME280;12047;53.450;-2.286;2024-01-15T05:15:03;100724.78;;;4.12;100.00
23733;BME280;12047;53.450;-2.286;2024-01-15T05:20:04;100722.84;;;3.73;100.00
23733;BME280;12047;53.450;-2.286;2024-01-15T05:25:05;100735.06;;;2.86;100.00
23733;BME280;12047;53.450;-2.286;2024-01-15T05:30:07;100734.91;;;3.47;100.00
23733;BME280;12047;53.450;-2.286;2024-01-15T05:35:09;100722.00;;;4.28;100.00
23733;BME280;12047;53.450;-2.286;2024-01-15T05:40:12;100717.16;;;3.66;100.00
23733;BME280;12047;53.450;-2.286;2024-01-15T05:45:20;100725.47;;;4.28;100.00
23733;BME280;12047;53.450;-2.286;2024-01-15T05:50:46;100733.69;;;3.53;100.00
23733;BME280;12047;53.450;-2.286;2024-01-15T05:56:18;100737.97;;;3.96;100.00
23733;BME280;12047;53.450;-2.286;2024-01-15T06:01:43;100756.72;;;4.04;100.00
23733;BME280;12047;53.450;-2.286;2024-01-15T06:06:45;100749.63;;;3.78;100.00
23733;BME280;12047;53.450;-2.286;2024-01-15T06:11:47;100747.38;;;3.86;100.00
23733;BME280;12047;53.450;-2.286;2024-01-15T06:16:48;100764.50;;;3.78;100.00
23733;BME280;12047;53.450;-2.286;2024-01-15T06:27:02;100774.53;;;3.85;100.00
23733;BME280;12047;53.450;-2.286;2024-01-15T06:32:04;100774.97;;;3.63;100.00
23733;BME280;12047;53.450;-2.286;2024-01-15T06:37:23;100779.75;;;3.99;100.00
23733;BME280;12047;53.450;-2.286;2024-01-15T06:42:32;100765.25;;;3.94;100.00
23733;BME280;12047;53.450;-2.286;2024-01-15T06:47:35;100776.09;;;3.59;100.00
23733;BME280;12047;53.450;-2.286;2024-01-15T06:52:50;100775.06;;;3.76;100.00
23733;BME280;12047;53.450;-2.286;2024-01-15T07:03:30;100787.06;;;3.66;100.00
23733;BME280;12047;53.450;-2.286;2024-01-15T07:08:50;100785.81;;;3.57;100.00
23733;BME280;12047;53.450;-2.286;2024-01-15T07:13:51;100775.81;;;3.64;100.00
23733;BME280;12047;53.450;-2.286;2024-01-15T07:18:53;100786.50;;;3.61;100.00
23733;BME280;12047;53.450;-2.286;2024-01-15T08:17:55;100871.44;;;4.29;100.00
23733;BME280;12047;53.450;-2.286;2024-01-15T09:51:35;100933.94;;;5.47;99.29
23733;BME280;12047;53.450;-2.286;2024-01-15T10:02:43;100955.88;;;5.73;95.60
23733;BME280;12047;53.450;-2.286;2024-01-15T10:07:46;100958.09;;;5.67;86.80
23733;BME280;12047;53.450;-2.286;2024-01-15T10:12:50;100965.00;;;5.95;83.82
23733;BME280;12047;53.450;-2.286;2024-01-15T10:17:50;100969.16;;;5.85;77.92
23733;BME280;12047;53.450;-2.286;2024-01-15T10:22:51;100978.47;;;5.90;77.33
23733;BME280;12047;53.450;-2.286;2024-01-15T10:28:03;100976.31;;;5.82;76.51
23733;BME280;12047;53.450;-2.286;2024-01-15T10:33:05;100985.44;;;5.91;75.04
23733;BME280;12047;53.450;-2.286;2024-01-15T10:38:05;100975.19;;;5.60;71.81
23733;BME280;12047;53.450;-2.286;2024-01-15T10:43:06;100988.28;;;5.47;70.23
23733;BME280;12047;53.450;-2.286;2024-01-15T10:48:07;100988.63;;;5.82;68.51
23733;BME280;12047;53.450;-2.286;2024-01-15T10:53:09;100997.09;;;5.73;66.20
23733;BME280;12047;53.450;-2.286;2024-01-15T10:58:13;100989.22;;;5.73;66.02
23733;BME280;12047;53.450;-2.286;2024-01-15T11:03:18;100996.25;;;5.72;66.78
23733;BME280;12047;53.450;-2.286;2024-01-15T11:08:28;100989.47;;;5.56;65.53
23733;BME280;12047;53.450;-2.286;2024-01-15T11:24:09;100978.19;;;5.80;65.14
23733;BME280;12047;53.450;-2.286;2024-01-15T11:29:34;100954.47;;;5.95;66.86
23733;BME280;12047;53.450;-2.286;2024-01-15T11:45:02;100954.50;;;6.20;64.36
23733;BME280;12047;53.450;-2.286;2024-01-15T11:50:04;100962.06;;;5.99;62.80
23733;BME280;12047;53.450;-2.286;2024-01-15T12:16:01;100960.59;;;5.95;59.83
23733;BME280;12047;53.450;-2.286;2024-01-15T12:21:08;100956.31;;;6.32;61.32
23733;BME280;12047;53.450;-2.286;2024-01-15T12:26:16;100957.28;;;6.19;60.98
23733;BME280;12047;53.450;-2.286;2024-01-15T12:31:19;100958.09;;;6.06;60.00
23733;BME280;12047;53.450;-2.286;2024-01-15T12:36:46;100962.53;;;6.44;59.30
23733;BME280;12047;53.450;-2.286;2024-01-15T12:41:51;100957.88;;;6.22;58.47
23733;BME280;12047;53.450;-2.286;2024-01-15T12:47:00;100945.50;;;6.37;58.11
23733;BME280;12047;53.450;-2.286;2024-01-15T12:52:54;100948.22;;;6.35;57.97
23733;BME280;12047;53.450;-2.286;2024-01-15T13:03:14;100952.44;;;6.12;56.47
23733;BME280;12047;53.450;-2.286;2024-01-15T13:08:15;100963.28;;;6.33;55.85
23733;BME280;12047;53.450;-2.286;2024-01-15T13:13:15;100971.78;;;6.24;56.15
23733;BME280;12047;53.450;-2.286;2024-01-15T13:18:29;100968.84;;;6.29;55.59
23733;BME280;12047;53.450;-2.286;2024-01-15T13:33:55;100960.22;;;6.52;55.16
23733;BME280;12047;53.450;-2.286;2024-01-15T13:39:01;100966.53;;;6.49;55.33
23733;BME280;12047;53.450;-2.286;2024-01-15T13:44:26;100948.34;;;6.96;53.62
23733;BME280;12047;53.450;-2.286;2024-01-15T13:49:29;100962.81;;;6.77;54.83
23733;BME280;12047;53.450;-2.286;2024-01-15T13:54:41;100953.47;;;6.61;54.44
23733;BME280;12047;53.450;-2.286;2024-01-15T13:59:42;100950.44;;;6.41;55.01
23733;BME280;12047;53.450;-2.286;2024-01-15T14:04:56;100953.66;;;6.70;54.11
23733;BME280;12047;53.450;-2.286;2024-01-15T14:15:20;100946.13;;;6.40;54.13
23733;BME280;12047;53.450;-2.286;2024-01-15T14:20:29;100950.22;;;6.44;54.25
23733;BME280;12047;53.450;-2.286;2024-01-15T14:25:30;100948.41;;;6.45;53.53
23733;BME280;12047;53.450;-2.286;2024-01-15T14:30:31;100942.75;;;6.51;53.62
23733;BME280;12047;53.450;-2.286;2024-01-15T14:35:31;100941.16;;;6.23;52.36
23733;BME280;12047;53.450;-2.286;2024-01-15T14:40:32;100927.16;;;6.48;51.96
23733;BME280;12047;53.450;-2.286;2024-01-15T14:51:44;100924.97;;;6.17;51.96
23733;BME280;12047;53.450;-2.286;2024-01-15T14:56:49;100935.38;;;6.56;52.19
23733;BME280;12047;53.450;-2.286;2024-01-15T15:17:40;100941.47;;;6.57;55.01
23733;BME280;12047;53.450;-2.286;2024-01-15T15:22:41;100925.53;;;6.71;54.62
23733;BME280;12047;53.450;-2.286;2024-01-15T15:27:42;100939.16;;;6.52;54.81
23733;BME280;12047;53.450;-2.286;2024-01-15T15:32:43;100940.50;;;7.43;55.49
23733;BME280;12047;53.450;-2.286;2024-01-15T15:37:44;100937.22;;;6.79;56.84
23733;BME280;12047;53.450;-2.286;2024-01-15T15:42:51;100943.56;;;6.52;57.67
23733;BME280;12047;53.450;-2.286;2024-01-15T15:47:56;100940.03;;;6.40;58.02
23733;BME280;12047;53.450;-2.286;2024-01-15T15:52:57;100937.88;;;6.45;59.04
23733;BME280;12047;53.450;-2.286;2024-01-15T15:57:57;100940.81;;;6.02;60.37
23733;BME280;12047;53.450;-2.286;2024-01-15T16:02:58;100943.13;;;5.94;60.48
23733;BME280;12047;53.450;-2.286;2024-01-15T16:07:59;100943.91;;;6.34;60.29
23733;BME280;12047;53.450;-2.286;2024-01-15T16:13:07;100955.59;;;6.56;61.11
23733;BME280;12047;53.450;-2.286;2024-01-15T16:18:08;100962.84;;;6.52;60.39
23733;BME280;12047;53.450;-2.286;2024-01-15T16:23:15;100951.03;;;6.83;62.08
23733;BME280;12047;53.450;-2.286;2024-01-15T16:28:19;100962.03;;;6.39;61.96
23733;BME280;12047;53.450;-2.286;2024-01-15T16:33:25;100966.13;;;6.56;62.92
23733;BME280;12047;53.450;-2.286;2024-01-15T17:16:03;100969.41;;;5.94;70.88
23733;BME280;12047;53.450;-2.286;2024-01-15T17:52:37;100999.81;;;5.71;79.16
23733;BME280;12047;53.450;-2.286;2024-01-15T17:57:44;100995.97;;;5.50;81.85
23733;BME280;12047;53.450;-2.286;2024-01-15T18:07:57;101002.34;;;5.46;88.31
23733;BME280;12047;53.450;-2.286;2024-01-15T18:18:15;101005.03;;;5.32;96.33
23733;BME280;12047;53.450;-2.286;2024-01-15T18:29:08;101000.88;;;4.87;91.77
23733;BME280;12047;53.450;-2.286;2024-01-15T18:40:18;101009.91;;;5.38;86.20
23733;BME280;12047;53.450;-2.286;2024-01-15T18:45:23;101010.88;;;5.08;90.04
23733;BME280;12047;53.450;-2.286;2024-01-15T18:50:26;101005.25;;;5.00;92.39
23733;BME280;12047;53.450;-2.286;2024-01-15T18:55:28;101006.28;;;4.98;92.46
23733;BME280;12047;53.450;-2.286;2024-01-15T19:00:29;100998.31;;;5.13;92.41
23733;BME280;12047;53.450;-2.286;2024-01-15T19:05:30;101003.22;;;7.51;100.00
23733;BME280;12047;53.450;-2.286;2024-01-15T19:10:31;101009.38;;;6.13;96.65
23733;BME280;12047;53.450;-2.286;2024-01-15T19:15:32;101010.97;;;5.62;95.01
23733;BME280;12047;53.450;-2.286;2024-01-15T19:20:33;101006.44;;;5.37;96.86
23733;BME280;12047;53.450;-2.286;2024-01-15T19:31:06;101006.06;;;4.30;100.00
23733;BME280;12047;53.450;-2.286;2024-01-15T19:53:10;101015.66;;;5.16;100.00
23733;BME280;12047;53.450;-2.286;2024-01-15T19:58:36;101007.69;;;5.18;100.00
23733;BME280;12047;53.450;-2.286;2024-01-15T20:03:37;101012.97;;;4.89;100.00
23733;BME280;12047;53.450;-2.286;2024-01-15T20:08:42;101011.81;;;4.06;100.00
23733;BME280;12047;53.450;-2.286;2024-01-15T20:13:46;101010.91;;;4.22;100.00
23733;BME280;12047;53.450;-2.286;2024-01-15T20:18:47;101008.38;;;4.93;100.00
23733;BME280;12047;53.450;-2.286;2024-01-15T20:23:48;100996.56;;;4.86;100.00
23733;BME280;12047;53.450;-2.286;2024-01-15T20:28:48;101000.84;;;5.01;100.00
23733;BME280;12047;53.450;-2.286;2024-01-15T20:33:51;101017.53;;;4.57;100.00
23733;BME280;12047;53.450;-2.286;2024-01-15T20:38:52;101008.81;;;4.71;100.00
23733;BME280;12047;53.450;-2.286;2024-01-15T20:43:52;101006.31;;;4.69;100.00
23733;BME280;12047;53.450;-2.286;2024-01-15T20:48:53;101008.72;;;4.44;100.00
23733;BME280;12047;53.450;-2.286;2024-01-15T20:53:54;101008.09;;;4.83;100.00
23733;BME280;12047;53.450;-2.286;2024-01-15T20:58:54;101005.75;;;4.78;100.00
23733;BME280;12047;53.450;-2.286;2024-01-15T21:03:55;100994.00;;;4.98;100.00
23733;BME280;12047;53.450;-2.286;2024-01-15T21:08:55;101010.25;;;4.76;100.00
23733;BME280;12047;53.450;-2.286;2024-01-15T21:13:56;101010.06;;;4.65;100.00
23733;BME280;12047;53.450;-2.286;2024-01-15T21:19:00;101015.00;;;4.98;100.00
23733;BME280;12047;53.450;-2.286;2024-01-15T21:24:08;100996.16;;;4.77;100.00
23733;BME280;12047;53.450;-2.286;2024-01-15T21:29:11;101003.94;;;4.51;100.00
23733;BME280;12047;53.450;-2.286;2024-01-15T21:34:12;101000.56;;;5.20;100.00
23733;BME280;12047;53.450;-2.286;2024-01-15T21:39:14;101004.00;;;5.20;100.00
23733;BME280;12047;53.450;-2.286;2024-01-15T21:44:22;100991.03;;;4.90;100.00
23733;BME280;12047;53.450;-2.286;2024-01-15T21:49:23;100985.66;;;5.06;100.00
23733;BME280;12047;53.450;-2.286;2024-01-15T21:54:26;100991.31;;;4.86;100.00
23733;BME280;12047;53.450;-2.286;2024-01-15T21:59:27;100986.13;;;4.98;100.00
23733;BME280;12047;53.450;-2.286;2024-01-15T22:04:37;100986.91;;;5.27;100.00
23733;BME280;12047;53.450;-2.286;2024-01-15T22:09:38;100980.50;;;5.19;100.00
23733;BME280;12047;53.450;-2.286;2024-01-15T22:14:38;100983.00;;;5.20;100.00
23733;BME280;12047;53.450;-2.286;2024-01-15T22:19:39;100974.59;;;5.15;100.00
23733;BME280;12047;53.450;-2.286;2024-01-15T22:24:42;100986.81;;;4.88;100.00
23733;BME280;12047;53.450;-2.286;2024-01-15T22:29:43;100983.88;;;5.06;100.00
23733;BME280;12047;53.450;-2.286;2024-01-15T22:34:44;100990.09;;;4.91;100.00
23733;BME280;12047;53.450;-2.286;2024-01-15T22:39:44;100984.47;;;4.83;100.00
23733;BME280;12047;53.450;-2.286;2024-01-15T22:44:45;100970.09;;;5.03;100.00
23733;BME280;12047;53.450;-2.286;2024-01-15T22:49:46;100975.53;;;5.00;100.00
23733;BME280;12047;53.450;-2.286;2024-01-15T22:54:46;100981.47;;;4.61;100.00
23733;BME280;12047;53.450;-2.286;2024-01-15T22:59:49;100992.13;;;4.72;100.00
23733;BME280;12047;53.450;-2.286;2024-01-15T23:04:51;100991.50;;;4.83;100.00
23733;BME280;12047;53.450;-2.286;2024-01-15T23:09:52;100986.25;;;4.83;100.00
23733;BME280;12047;53.450;-2.286;2024-01-15T23:14:52;100977.63;;;4.81;99.56
23733;BME280;12047;53.450;-2.286;2024-01-15T23:19:53;100974.63;;;4.58;99.31
23733;BME280;12047;53.450;-2.286;2024-01-15T23:24:53;100988.28;;;4.35;100.00
23733;BME280;12047;53.450;-2.286;2024-01-15T23:29:54;100985.31;;;4.69;100.00
23733;BME280;12047;53.450;-2.286;2024-01-15T23:34:55;100971.59;;;4.78;99.62
23733;BME280;12047;53.450;-2.286;2024-01-15T23:39:55;100950.09;;;5.00;98.85
23733;BME280;12047;53.450;-2.286;2024-01-15T23:44:56;100960.06;;;4.81;100.00
23733;BME280;12047;53.450;-2.286;2024-01-15T23:49:57;100950.88;;;4.17;100.00
23733;BME280;12047;53.450;-2.286;2024-01-15T23:54:57;100943.34;;;3.67;100.00
23733;BME280;12047;53.450;-2.286;2024-01-15T23:59:58;100939.38;;;4.34;100.00
